createdAt,value
2022-11-02T00:00:27.632Z,64.89
2022-11-02T00:02:54.008Z,65.67
2022-11-02T00:05:20.334Z,65.78
2022-11-02T00:07:46.714Z,66.14
2022-11-02T00:10:13.063Z,66.02
2022-11-02T00:12:39.385Z,66.14
2022-11-02T00:15:05.715Z,66.20
2022-11-02T00:17:32.065Z,65.94
2022-11-02T00:19:58.413Z,65.59
2022-11-02T00:22:24.762Z,65.66
2022-11-02T00:24:51.099Z,66.34
2022-11-02T00:27:17.420Z,66.45
2022-11-02T00:29:43.753Z,66.44
2022-11-02T00:32:10.075Z,66.64
2022-11-02T00:34:36.491Z,66.72
2022-11-02T00:37:02.890Z,66.95
2022-11-02T00:39:29.211Z,67.27
2022-11-02T00:41:55.539Z,67.16
2022-11-02T00:44:21.885Z,67.18
2022-11-02T00:46:48.207Z,67.79
2022-11-02T00:49:14.538Z,68.60
2022-11-02T00:51:40.904Z,68.79
2022-11-02T00:54:07.259Z,68.68
2022-11-02T00:56:33.575Z,68.22
2022-11-02T00:58:59.900Z,67.25
2022-11-02T01:01:26.316Z,67.70
2022-11-02T01:03:52.556Z,67.54
2022-11-02T01:06:18.891Z,67.98
2022-11-02T01:08:45.251Z,68.62
2022-11-02T01:11:11.595Z,67.91
2022-11-02T01:13:37.936Z,68.40
2022-11-02T01:16:04.270Z,68.06
2022-11-02T01:18:30.624Z,67.96
2022-11-02T01:20:56.939Z,67.08
2022-11-02T01:23:23.299Z,66.85
2022-11-02T01:25:49.620Z,66.58
2022-11-02T01:28:15.967Z,67.07
2022-11-02T01:30:42.327Z,66.73
2022-11-02T01:33:08.671Z,65.92
2022-11-02T01:35:35.013Z,66.86
2022-11-02T01:38:01.594Z,66.83
2022-11-02T01:40:27.709Z,66.93
2022-11-02T01:42:54.057Z,67.28
2022-11-02T01:45:20.401Z,67.49
2022-11-02T01:47:46.726Z,66.89
2022-11-02T01:50:13.056Z,66.95
2022-11-02T01:52:39.423Z,65.40
2022-11-02T01:55:05.743Z,65.68
2022-11-02T01:57:32.096Z,65.56
2022-11-02T01:59:58.473Z,65.91
2022-11-02T02:02:24.916Z,66.66
2022-11-02T02:04:51.143Z,66.99
2022-11-02T02:07:17.487Z,67.11
2022-11-02T02:09:47.279Z,67.93
2022-11-02T02:12:10.156Z,68.22
2022-11-02T02:14:36.502Z,67.66
2022-11-02T02:17:02.901Z,68.06
2022-11-02T02:19:29.261Z,68.58
2022-11-02T02:21:55.595Z,68.27
2022-11-02T02:24:21.943Z,69.08
2022-11-02T02:26:48.315Z,68.87
2022-11-02T02:29:14.621Z,69.05
2022-11-02T02:31:40.979Z,69.47
2022-11-02T02:34:07.306Z,69.81
2022-11-02T02:36:33.677Z,69.83
2022-11-02T02:39:00.012Z,69.79
2022-11-02T02:41:26.393Z,69.73
2022-11-02T02:43:52.710Z,69.87
2022-11-02T02:46:19.062Z,70.15
2022-11-02T02:48:45.399Z,69.81
2022-11-02T02:51:11.779Z,70.15
2022-11-02T02:53:38.151Z,70.17
2022-11-02T02:56:04.498Z,70.46
2022-11-02T02:58:30.840Z,70.24
2022-11-02T03:00:57.189Z,69.50
2022-11-02T03:03:23.507Z,69.97
2022-11-02T03:05:49.869Z,69.78
2022-11-02T03:08:16.211Z,69.87
2022-11-02T03:10:42.561Z,68.91
2022-11-02T03:13:08.904Z,68.96
2022-11-02T03:15:35.224Z,69.00
2022-11-02T03:18:01.860Z,69.34
2022-11-02T03:20:27.891Z,69.11
2022-11-02T03:22:54.209Z,70.02
2022-11-02T03:25:20.534Z,70.47
2022-11-02T03:27:46.865Z,69.99
2022-11-02T03:30:13.244Z,69.43
2022-11-02T03:32:39.581Z,70.30
2022-11-02T03:35:05.908Z,69.73
2022-11-02T03:37:32.253Z,69.48
2022-11-02T03:39:58.644Z,69.90
2022-11-02T03:42:24.977Z,69.67
2022-11-02T03:44:51.306Z,69.36
2022-11-02T03:47:17.681Z,69.39
2022-11-02T03:49:44.008Z,69.09
2022-11-02T03:52:10.322Z,69.21
2022-11-02T03:54:36.707Z,69.11
2022-11-02T03:59:29.341Z,69.32
2022-11-02T04:01:55.733Z,69.09
2022-11-02T04:04:22.009Z,69.14
2022-11-02T04:06:48.349Z,68.61
2022-11-02T04:09:14.700Z,68.69
2022-11-02T04:11:41.035Z,68.35
2022-11-02T04:14:07.397Z,68.48
2022-11-02T04:16:33.733Z,68.68
2022-11-02T04:19:00.061Z,69.47
2022-11-02T04:21:26.375Z,68.01
2022-11-02T04:23:52.726Z,68.83
2022-11-02T04:26:19.099Z,68.33
2022-11-02T04:28:45.449Z,67.54
2022-11-02T04:31:11.762Z,67.97
2022-11-02T04:33:38.115Z,68.70
2022-11-02T04:36:04.450Z,67.37
2022-11-02T04:38:30.777Z,67.69
2022-11-02T04:40:57.098Z,67.59
2022-11-02T04:43:23.427Z,68.05
2022-11-02T04:45:49.767Z,67.50
2022-11-02T04:48:16.094Z,67.45
2022-11-02T04:50:42.439Z,67.01
2022-11-02T04:53:08.825Z,67.37
2022-11-02T04:55:35.143Z,67.83
2022-11-02T04:58:01.634Z,67.97
2022-11-02T05:00:27.820Z,67.65
2022-11-02T05:02:54.238Z,68.20
2022-11-02T05:05:20.501Z,68.37
2022-11-02T05:07:46.828Z,69.29
2022-11-02T05:10:13.185Z,70.40
2022-11-02T05:12:39.556Z,69.86
2022-11-02T05:15:05.851Z,70.13
2022-11-02T05:17:32.205Z,69.76
2022-11-02T05:19:58.634Z,69.82
2022-11-02T05:22:24.958Z,69.39
2022-11-02T05:24:51.276Z,68.90
2022-11-02T05:27:17.629Z,68.79
2022-11-02T05:29:43.955Z,68.34
2022-11-02T05:32:10.284Z,68.01
2022-11-02T05:34:36.624Z,67.75
2022-11-02T05:37:02.973Z,68.00
2022-11-02T05:39:29.290Z,67.76
2022-11-02T05:41:55.660Z,67.39
2022-11-02T05:44:22.032Z,67.32
2022-11-02T05:46:48.323Z,67.15
2022-11-02T05:49:14.672Z,66.57
2022-11-02T05:51:41.025Z,66.18
2022-11-02T05:54:07.393Z,65.31
2022-11-02T05:56:33.752Z,64.79
2022-11-02T05:59:00.056Z,63.89
2022-11-02T06:01:26.455Z,63.36
2022-11-02T06:03:53.904Z,62.60
2022-11-02T06:06:19.146Z,62.16
2022-11-02T06:08:45.518Z,61.37
2022-11-02T06:11:11.863Z,61.22
2022-11-02T06:13:38.196Z,61.57
2022-11-02T06:16:04.525Z,61.63
2022-11-02T06:18:30.886Z,60.10
2022-11-02T06:20:57.210Z,58.79
2022-11-02T06:23:23.528Z,57.68
2022-11-02T06:25:49.878Z,57.98
2022-11-02T06:28:16.190Z,57.51
2022-11-02T06:30:42.521Z,56.43
2022-11-02T06:33:09.267Z,57.63
2022-11-02T06:35:35.265Z,57.68
2022-11-02T06:38:01.592Z,56.47
2022-11-02T06:40:27.954Z,56.34
2022-11-02T06:43:10.938Z,55.51
2022-11-02T06:45:20.600Z,55.72
2022-11-02T06:47:46.946Z,54.79
2022-11-02T06:50:13.261Z,54.24
2022-11-02T06:52:39.614Z,53.57
2022-11-02T06:55:05.974Z,53.30
2022-11-02T06:57:32.313Z,53.03
2022-11-02T06:59:58.695Z,53.20
2022-11-02T07:02:25.047Z,51.84
2022-11-02T07:04:51.349Z,50.76
2022-11-02T07:07:17.666Z,49.62
2022-11-02T07:09:44.015Z,49.80
2022-11-02T07:12:10.337Z,48.86
2022-11-02T07:14:36.691Z,48.82
2022-11-02T07:17:03.023Z,49.13
2022-11-02T07:19:29.372Z,47.74
2022-11-02T07:21:55.724Z,48.94
2022-11-02T07:26:57.456Z,49.65
2022-11-02T07:29:23.798Z,49.12
2022-11-02T07:31:50.150Z,48.47
2022-11-02T07:34:17.339Z,49.07
2022-11-02T07:36:42.833Z,47.61
2022-11-02T07:39:09.178Z,47.43
2022-11-02T07:41:35.556Z,47.10
2022-11-02T07:44:01.901Z,46.93
2022-11-02T07:46:28.227Z,46.52
2022-11-02T07:48:54.555Z,46.91
2022-11-02T07:51:20.924Z,45.05
2022-11-02T07:53:47.245Z,45.48
2022-11-02T07:56:13.592Z,44.83
2022-11-02T07:58:39.933Z,45.10
2022-11-02T08:01:06.362Z,45.44
2022-11-02T08:03:32.748Z,45.10
2022-11-02T08:05:59.063Z,44.61
2022-11-02T08:08:25.411Z,43.80
2022-11-02T08:10:51.748Z,43.95
2022-11-02T08:13:18.089Z,42.49
2022-11-02T08:15:44.433Z,41.96
2022-11-02T08:18:10.794Z,40.97
2022-11-02T08:20:37.123Z,40.85
2022-11-02T08:23:03.488Z,40.29
2022-11-02T08:25:29.831Z,39.73
2022-11-02T08:27:56.226Z,39.48
2022-11-02T08:30:22.544Z,38.96
2022-11-02T08:32:51.546Z,38.81
2022-11-02T08:35:15.205Z,38.52
2022-11-02T08:37:41.541Z,38.18
2022-11-02T08:40:07.891Z,37.98
2022-11-02T08:42:34.248Z,37.60
2022-11-02T08:45:00.569Z,36.90
2022-11-02T08:47:26.952Z,36.46
2022-11-02T08:49:53.350Z,36.72
2022-11-02T08:52:19.676Z,36.73
2022-11-02T08:54:46.006Z,35.55
2022-11-02T08:57:12.336Z,36.52
2022-11-02T08:59:38.699Z,36.24
2022-11-02T09:02:05.204Z,36.01
2022-11-02T09:04:31.394Z,36.73
2022-11-02T09:06:57.726Z,36.17
2022-11-02T09:09:24.073Z,36.23
2022-11-02T09:11:50.415Z,36.12
2022-11-02T09:14:16.839Z,35.89
2022-11-02T09:16:43.158Z,35.48
2022-11-02T09:19:09.474Z,35.02
2022-11-02T09:21:35.824Z,35.32
2022-11-02T09:24:02.159Z,35.37
2022-11-02T09:26:28.518Z,35.44
2022-11-02T09:28:54.832Z,35.01
2022-11-02T09:31:21.222Z,34.84
2022-11-02T09:33:47.584Z,34.26
2022-11-02T09:36:13.923Z,33.55
2022-11-02T09:38:40.275Z,33.72
2022-11-02T09:41:06.624Z,33.55
2022-11-02T09:43:32.993Z,33.21
2022-11-02T09:45:59.334Z,32.71
2022-11-02T09:48:28.665Z,32.87
2022-11-02T09:50:53.431Z,33.60
2022-11-02T09:53:18.368Z,33.29
2022-11-02T09:55:44.793Z,32.40
2022-11-02T09:58:11.139Z,32.07
2022-11-02T10:00:37.506Z,31.54
2022-11-02T10:03:03.880Z,31.62
2022-11-02T10:05:30.160Z,31.94
2022-11-02T10:07:56.487Z,31.84
2022-11-02T10:10:22.826Z,31.42
2022-11-02T10:12:49.210Z,31.30
2022-11-02T10:15:15.530Z,31.44
2022-11-02T10:17:41.884Z,31.27
2022-11-02T10:20:08.230Z,30.63
2022-11-02T10:22:34.569Z,30.58
2022-11-02T10:25:01.049Z,30.14
2022-11-02T10:27:27.369Z,30.09
2022-11-02T10:29:53.720Z,29.77
2022-11-02T10:32:20.077Z,29.65
2022-11-02T10:34:54.143Z,29.48
2022-11-02T10:37:12.742Z,29.74
2022-11-02T10:39:39.070Z,29.05
2022-11-02T10:42:05.431Z,29.18
2022-11-02T10:44:31.783Z,28.95
2022-11-02T10:46:58.114Z,28.83
2022-11-02T10:49:24.453Z,28.67
2022-11-02T10:51:50.776Z,28.97
2022-11-02T10:54:20.646Z,28.86
2022-11-02T10:56:43.470Z,27.93
2022-11-02T10:59:09.808Z,27.90
2022-11-02T11:01:36.199Z,27.69
2022-11-02T11:04:02.521Z,28.07
2022-11-02T11:06:28.831Z,27.97
2022-11-02T11:08:55.197Z,27.93
2022-11-02T11:11:21.516Z,27.91
2022-11-02T11:16:17.724Z,27.01
2022-11-02T11:21:06.930Z,26.55
2022-11-02T11:23:33.258Z,26.35
2022-11-02T11:25:59.612Z,26.28
2022-11-02T11:28:25.955Z,26.13
2022-11-02T11:30:59.904Z,25.89
2022-11-02T11:33:18.699Z,25.47
2022-11-02T11:35:45.021Z,25.29
2022-11-02T11:38:11.376Z,24.29
2022-11-02T11:40:37.717Z,24.03
2022-11-02T11:43:04.046Z,23.62
2022-11-02T11:45:30.388Z,23.66
2022-11-02T11:47:56.735Z,23.36
2022-11-02T11:50:24.143Z,23.20
2022-11-02T11:52:49.390Z,22.11
2022-11-02T11:55:15.716Z,22.09
2022-11-02T11:57:42.042Z,21.70
2022-11-02T12:00:08.398Z,21.45
2022-11-02T12:02:39.407Z,21.18
2022-11-02T12:05:01.044Z,20.96
2022-11-02T12:07:27.379Z,21.10
2022-11-02T12:09:53.738Z,20.61
2022-11-02T12:12:20.050Z,20.91
2022-11-02T12:14:46.384Z,20.58
2022-11-02T12:17:12.713Z,20.90
2022-11-02T12:19:39.040Z,21.15
2022-11-02T12:22:05.389Z,21.19
2022-11-02T12:24:31.767Z,21.21
2022-11-02T12:26:58.089Z,20.89
2022-11-02T12:29:24.481Z,21.50
2022-11-02T12:31:50.822Z,21.52
2022-11-02T12:34:17.160Z,21.39
2022-11-02T12:37:11.117Z,21.50
2022-11-02T12:39:09.823Z,21.54
2022-11-02T12:41:36.170Z,21.73
2022-11-02T12:44:02.515Z,21.81
2022-11-02T12:46:29.997Z,21.81
2022-11-02T12:48:55.173Z,21.85
2022-11-02T12:51:21.568Z,21.91
2022-11-02T12:53:47.900Z,21.87
2022-11-02T12:56:14.229Z,21.81
2022-11-02T12:58:40.558Z,21.97
2022-11-02T13:01:12.293Z,21.79
2022-11-02T13:03:33.242Z,21.72
2022-11-02T13:05:59.597Z,21.68
2022-11-02T13:08:25.932Z,21.72
2022-11-02T13:10:53.774Z,21.74
2022-11-02T13:13:18.626Z,21.59
2022-11-02T13:15:44.990Z,21.72
2022-11-02T13:18:11.331Z,22.38
2022-11-02T13:20:37.659Z,22.64
2022-11-02T13:23:04.396Z,23.00
2022-11-02T13:25:30.336Z,23.61
2022-11-02T13:27:59.038Z,23.88
2022-11-02T13:30:23.030Z,23.91
2022-11-02T13:32:49.387Z,24.15
2022-11-02T13:35:15.701Z,24.37
2022-11-02T13:37:42.021Z,24.41
2022-11-02T13:40:08.390Z,24.58
2022-11-02T13:42:34.738Z,24.73
2022-11-02T13:45:01.088Z,24.82
2022-11-02T13:47:27.440Z,25.10
2022-11-02T13:49:53.782Z,25.04
2022-11-02T13:52:20.099Z,25.02
2022-11-02T13:54:46.543Z,24.85
2022-11-02T13:57:12.791Z,25.01
2022-11-02T13:59:43.121Z,25.22
2022-11-02T14:02:05.688Z,25.34
2022-11-02T14:04:31.863Z,25.68
2022-11-02T14:06:58.156Z,25.67
2022-11-02T14:09:24.521Z,25.58
2022-11-02T14:11:50.866Z,25.80
2022-11-02T14:14:17.186Z,26.06
2022-11-02T14:16:43.516Z,26.18
2022-11-02T14:19:10.475Z,26.51
2022-11-02T14:21:36.166Z,26.67
2022-11-02T14:24:02.565Z,26.87
2022-11-02T14:26:28.899Z,27.04
2022-11-02T14:28:55.252Z,27.14
2022-11-02T14:31:21.697Z,27.24
2022-11-02T14:33:48.031Z,27.45
2022-11-02T14:36:14.377Z,27.51
2022-11-02T14:38:40.695Z,27.80
2022-11-02T14:41:07.016Z,27.94
2022-11-02T14:43:33.375Z,28.10
2022-11-02T14:46:01.506Z,28.40
2022-11-02T14:48:26.039Z,28.32
2022-11-02T14:50:52.387Z,28.50
2022-11-02T14:53:18.717Z,28.54
2022-11-02T14:55:45.072Z,28.79
2022-11-02T14:58:11.517Z,29.02
2022-11-02T15:00:37.775Z,28.96
2022-11-02T15:03:04.395Z,29.12
2022-11-02T15:05:30.410Z,29.24
2022-11-02T15:07:56.760Z,29.41
2022-11-02T15:10:23.079Z,29.53
2022-11-02T15:12:49.407Z,29.62
2022-11-02T15:15:15.755Z,29.81
2022-11-02T15:17:42.089Z,29.99
2022-11-02T15:20:08.435Z,30.14
2022-11-02T15:22:34.823Z,30.27
2022-11-02T15:25:01.298Z,30.36
2022-11-02T15:27:27.587Z,30.52
2022-11-02T15:29:53.957Z,30.55
2022-11-02T15:32:22.821Z,30.83
2022-11-02T15:34:46.628Z,30.97
2022-11-02T15:37:12.956Z,31.30
2022-11-02T15:39:39.290Z,31.23
2022-11-02T15:42:05.647Z,31.37
2022-11-02T15:44:31.966Z,31.53
2022-11-02T15:46:58.295Z,31.65
2022-11-02T15:49:24.622Z,31.91
2022-11-02T15:51:51.067Z,31.94
2022-11-02T15:54:17.396Z,31.87
2022-11-02T15:56:43.742Z,31.93
2022-11-02T15:59:10.062Z,32.07
2022-11-02T16:01:36.482Z,32.22
2022-11-02T16:04:02.812Z,32.48
2022-11-02T16:06:29.084Z,32.86
2022-11-02T16:08:55.423Z,33.07
2022-11-02T16:11:21.752Z,33.25
2022-11-02T16:14:08.093Z,33.49
2022-11-02T16:16:14.421Z,33.50
2022-11-02T16:18:40.766Z,33.63
2022-11-02T16:21:07.133Z,33.88
2022-11-02T16:23:33.468Z,34.17
2022-11-02T16:25:59.816Z,34.25
2022-11-02T16:28:26.190Z,34.21
2022-11-02T16:30:52.530Z,34.33
2022-11-02T16:33:18.876Z,34.48
2022-11-02T16:35:45.208Z,34.50
2022-11-02T16:38:11.537Z,34.54
2022-11-02T16:40:37.872Z,34.73
2022-11-02T16:43:04.192Z,35.08
2022-11-02T16:45:30.588Z,35.31
2022-11-02T16:47:56.902Z,35.38
2022-11-02T16:50:23.247Z,35.75
2022-11-02T16:52:49.564Z,36.07
2022-11-02T16:55:15.915Z,36.07
2022-11-02T16:57:42.252Z,36.22
2022-11-02T17:00:08.591Z,36.17
2022-11-02T17:02:35.120Z,36.42
2022-11-02T17:05:05.803Z,36.38
2022-11-02T17:07:27.795Z,36.46
2022-11-02T17:09:54.284Z,36.58
2022-11-02T17:12:20.579Z,36.62
2022-11-02T17:14:46.957Z,36.68
2022-11-02T17:17:13.494Z,36.60
2022-11-02T17:19:39.869Z,36.85
2022-11-02T17:22:06.198Z,36.88
2022-11-02T17:24:32.549Z,36.73
2022-11-02T17:26:58.985Z,36.82
2022-11-02T17:29:25.391Z,36.84
2022-11-02T17:31:51.718Z,36.94
2022-11-02T17:34:18.101Z,36.99
2022-11-02T17:36:44.388Z,37.11
2022-11-02T17:39:10.778Z,37.31
2022-11-02T17:41:37.118Z,37.47
2022-11-02T17:44:03.477Z,37.23
2022-11-02T17:46:29.820Z,37.19
2022-11-02T17:48:56.163Z,37.24
2022-11-02T17:51:22.528Z,37.17
2022-11-02T17:53:48.859Z,36.94
2022-11-02T17:56:15.192Z,37.17
2022-11-02T17:58:41.560Z,37.32
2022-11-02T18:01:07.916Z,37.54
2022-11-02T18:03:34.220Z,37.56
2022-11-02T18:06:00.932Z,37.63
2022-11-02T18:08:26.955Z,37.74
2022-11-02T18:10:53.291Z,37.69
2022-11-02T18:13:19.653Z,37.72
2022-11-02T18:15:45.980Z,38.00
2022-11-02T18:18:12.310Z,38.03
2022-11-02T18:20:41.520Z,37.87
2022-11-02T18:23:05.263Z,37.72
2022-11-02T18:25:31.353Z,37.68
2022-11-02T18:27:57.717Z,37.58
2022-11-02T18:30:24.045Z,37.63
2022-11-02T18:32:50.374Z,37.79
2022-11-02T18:35:16.727Z,37.76
2022-11-02T18:37:43.060Z,38.00
2022-11-02T18:40:09.416Z,38.06
2022-11-02T18:42:35.734Z,38.02
2022-11-02T18:45:02.095Z,37.96
2022-11-02T18:47:28.443Z,37.91
2022-11-02T18:49:54.837Z,37.79
2022-11-02T18:52:22.487Z,37.71
2022-11-02T18:54:47.524Z,37.73
2022-11-02T18:57:13.855Z,37.79
2022-11-02T18:59:40.213Z,37.88
2022-11-02T19:02:06.668Z,37.97
2022-11-02T19:04:32.897Z,37.89
2022-11-02T19:06:59.233Z,37.85
2022-11-02T19:09:25.556Z,37.89
2022-11-02T19:11:51.939Z,37.82
2022-11-02T19:14:18.282Z,37.87
2022-11-02T19:16:44.629Z,37.91
2022-11-02T19:19:11.004Z,38.20
2022-11-02T19:21:37.343Z,38.42
2022-11-02T19:24:03.688Z,38.61
2022-11-02T19:26:30.047Z,38.64
2022-11-02T19:28:58.785Z,38.78
2022-11-02T19:31:22.711Z,38.77
2022-11-02T19:33:49.074Z,39.00
2022-11-02T19:36:15.393Z,38.86
2022-11-02T19:38:41.756Z,38.93
2022-11-02T19:41:08.104Z,38.95
2022-11-02T19:43:34.461Z,38.98
2022-11-02T19:46:00.803Z,39.06
2022-11-02T19:48:27.188Z,38.99
2022-11-02T19:50:53.501Z,39.01
2022-11-02T19:53:19.842Z,39.16
2022-11-02T19:55:46.149Z,39.18
2022-11-02T19:58:12.473Z,39.39
2022-11-02T20:00:38.888Z,39.33
2022-11-02T20:03:05.273Z,39.59
2022-11-02T20:05:31.577Z,39.45
2022-11-02T20:07:57.927Z,39.20
2022-11-02T20:10:24.273Z,39.19
2022-11-02T20:12:50.621Z,39.25
2022-11-02T20:15:16.972Z,39.11
2022-11-02T20:18:05.624Z,38.91
2022-11-02T20:20:09.655Z,38.72
2022-11-02T20:22:36.051Z,38.75
2022-11-02T20:25:02.373Z,38.83
2022-11-02T20:27:28.782Z,38.92
2022-11-02T20:29:55.084Z,38.92
2022-11-02T20:32:21.435Z,38.82
2022-11-02T20:34:47.790Z,39.05
2022-11-02T20:37:14.122Z,39.06
2022-11-02T20:39:40.475Z,38.97
2022-11-02T20:42:06.841Z,38.96
2022-11-02T20:44:33.205Z,39.01
2022-11-02T20:46:59.558Z,39.22
2022-11-02T20:51:52.367Z,39.07
2022-11-02T20:54:18.712Z,38.97
2022-11-02T20:56:45.033Z,38.67
2022-11-02T20:59:11.379Z,38.46
2022-11-02T21:01:37.805Z,38.47
2022-11-02T21:04:04.066Z,38.52
2022-11-02T21:06:30.454Z,38.66
2022-11-02T21:08:56.769Z,38.54
2022-11-02T21:11:23.119Z,38.58
2022-11-02T21:13:49.496Z,38.87
2022-11-02T21:16:15.843Z,38.92
2022-11-02T21:18:42.179Z,38.86
2022-11-02T21:21:08.517Z,38.96
2022-11-02T21:23:34.855Z,38.72
2022-11-02T21:26:01.195Z,38.70
2022-11-02T21:28:27.545Z,38.65
2022-11-02T21:30:53.895Z,38.64
2022-11-02T21:33:20.240Z,38.68
2022-11-02T21:35:46.585Z,38.77
2022-11-02T21:38:12.933Z,38.81
2022-11-02T21:40:39.267Z,39.08
2022-11-02T21:43:05.843Z,38.47
2022-11-02T21:45:36.610Z,38.66
2022-11-02T21:47:58.326Z,38.42
2022-11-02T21:50:24.708Z,38.75
2022-11-02T21:52:51.034Z,38.51
2022-11-02T21:55:17.384Z,39.03
2022-11-02T21:57:43.748Z,39.02
2022-11-02T22:00:10.120Z,38.39
2022-11-02T22:02:36.496Z,38.80
2022-11-02T22:05:02.783Z,38.71
2022-11-02T22:07:29.136Z,38.57
2022-11-02T22:09:55.460Z,38.44
2022-11-02T22:12:21.779Z,38.36
2022-11-02T22:14:48.130Z,38.37
2022-11-02T22:17:35.741Z,38.15
2022-11-02T22:19:40.788Z,38.07
2022-11-02T22:22:07.108Z,37.70
2022-11-02T22:24:33.514Z,37.38
2022-11-02T22:26:59.853Z,37.44
2022-11-02T22:29:26.177Z,37.42
2022-11-02T22:31:52.559Z,37.25
2022-11-02T22:34:18.908Z,37.08
2022-11-02T22:36:45.226Z,36.69
2022-11-02T22:39:11.600Z,36.59
2022-11-02T22:41:37.936Z,36.51
2022-11-02T22:44:04.286Z,36.77
2022-11-02T22:46:30.601Z,36.77
2022-11-02T22:48:56.981Z,36.92
2022-11-02T22:51:23.300Z,37.05
2022-11-02T22:53:49.624Z,37.19
2022-11-02T22:56:15.951Z,37.31
2022-11-02T22:58:42.336Z,37.44
2022-11-02T23:01:08.728Z,37.34
2022-11-02T23:03:35.020Z,37.51
2022-11-02T23:06:01.364Z,37.75
2022-11-02T23:10:54.644Z,38.02
2022-11-02T23:13:20.387Z,37.94
2022-11-02T23:15:46.710Z,38.12
2022-11-02T23:18:13.036Z,38.18
2022-11-02T23:20:39.435Z,38.38
2022-11-02T23:23:05.943Z,38.43
2022-11-02T23:25:32.104Z,38.66
2022-11-02T23:27:58.478Z,38.91
2022-11-02T23:30:24.813Z,38.94
2022-11-02T23:32:51.131Z,39.04
2022-11-02T23:35:17.521Z,39.41
2022-11-02T23:37:43.867Z,39.29
2022-11-02T23:40:10.194Z,39.35
2022-11-02T23:42:36.543Z,39.69
2022-11-02T23:45:02.864Z,39.64
2022-11-02T23:47:29.189Z,39.91
2022-11-02T23:49:55.549Z,40.07
2022-11-02T23:52:21.877Z,40.12
2022-11-02T23:54:48.200Z,40.05
2022-11-02T23:57:14.549Z,40.01
2022-11-02T23:59:40.895Z,40.05
